Avant, Oklahoma
Current Conditions -  °F | °C
As of 12:53 PM on Tuesday 27 Jan 2015 (Local Time) from KBVO Reporting Station
Clear Clear  
Wind Chill: 64°   Ceiling: Unl
Heat Index: 64°   Visibility: 10mi
Dew Point: 36°   Wind: 7mph
Humidity: 35%   Direction: 150°SSE
Pressure: 30.13"   Gusts: NA
Location:  36.49°N, 96.06°W
Report Text: KBVO 271853Z AUTO 15006KT 10SM CLR 18/02 A3013 RMK AO2 SLP202 T01780022
Loading
Personal Weather Stations






























Interactive Weather Map New forecast layout! Learn more

10-Day Weather Forecast

Advertisements
Track Severe Weather on mobile